Time;durP1;ratioP1;P1;durP2;ratioP2;P2;SDS_P1;SDS_P2;PMS_P1;PMS_P2;Temp;Humidity;BMP_temperature;BMP_pressure;BME280_temperature;BME280_humidity;BME280_pressure;Samples;Min_cycle;Max_cycle;Signal;HPM_P1;HPM_P2
2023/08/04 00:01:21;;;;;;;2.13;1.98;;;21.80;99.90;;;;;;5089723;28;20221;-78
2023/08/04 00:03:48;;;;;;;2.35;2.15;;;21.80;99.90;;;;;;5084765;28;20755;-78
2023/08/04 00:06:15;;;;;;;2.50;2.30;;;21.90;99.90;;;;;;5091027;28;20206;-80
2023/08/04 00:08:42;;;;;;;2.47;2.28;;;22.00;99.90;;;;;;5087119;28;20198;-79
2023/08/04 00:11:09;;;;;;;2.40;2.20;;;22.10;99.90;;;;;;5088738;28;20198;-79
2023/08/04 00:13:35;;;;;;;2.95;2.33;;;22.10;99.90;;;;;;5089112;28;20233;-78
2023/08/04 00:16:08;;;;;;;2.42;2.30;;;22.00;99.90;;;;;;5090629;28;20229;-78
2023/08/04 00:18:35;;;;;;;2.75;2.40;;;22.00;99.90;;;;;;5089042;28;20213;-79
2023/08/04 00:21:03;;;;;;;2.58;2.00;;;21.90;99.90;;;;;;5085868;28;20240;-78
2023/08/04 00:23:30;;;;;;;2.85;2.40;;;21.90;99.90;;;;;;5089273;28;20231;-77
2023/08/04 00:25:57;;;;;;;2.78;2.47;;;21.80;99.90;;;;;;5091586;28;20201;-79
2023/08/04 00:28:24;;;;;;;2.10;2.00;;;21.70;99.90;;;;;;5087629;28;20197;-78
2023/08/04 00:30:50;;;;;;;2.17;2.00;;;21.70;99.90;;;;;;5084260;28;20197;-79
2023/08/04 00:33:19;;;;;;;3.50;2.20;;;21.70;99.90;;;;;;5082333;28;20197;-79
2023/08/04 00:35:46;;;;;;;1.95;1.85;;;21.70;99.90;;;;;;5088039;28;20197;-78
2023/08/04 00:38:13;;;;;;;2.35;2.25;;;21.70;99.90;;;;;;5088632;28;20283;-78
2023/08/04 00:40:40;;;;;;;2.30;2.10;;;21.70;99.90;;;;;;5086690;28;20271;-78
2023/08/04 00:43:07;;;;;;;2.50;2.30;;;21.70;99.90;;;;;;5088703;28;20198;-77
2023/08/04 00:45:35;;;;;;;3.67;2.38;;;21.60;99.90;;;;;;5080504;28;20197;-78
2023/08/04 00:48:02;;;;;;;2.72;2.53;;;21.60;99.90;;;;;;5088145;28;20221;-78
2023/08/04 00:50:32;;;;;;;2.70;2.22;;;21.50;99.90;;;;;;5083191;28;20675;-78
2023/08/04 00:53:00;;;;;;;2.83;2.00;;;21.60;99.90;;;;;;5088698;28;20292;-78
2023/08/04 00:55:28;;;;;;;2.50;2.30;;;21.60;99.90;;;;;;5087913;28;20233;-78
2023/08/04 00:57:56;;;;;;;2.50;2.30;;;21.60;99.90;;;;;;5087298;28;20255;-79
2023/08/04 01:00:23;;;;;;;2.90;2.20;;;21.50;99.90;;;;;;5087174;28;20217;-78
2023/08/04 01:02:50;;;;;;;2.50;2.30;;;21.50;99.90;;;;;;5087436;28;20205;-78
2023/08/04 01:05:18;;;;;;;2.58;2.38;;;21.50;99.90;;;;;;5083137;28;21056;-78
2023/08/04 01:07:56;;;;;;;2.30;2.10;;;21.50;99.90;;;;;;5087740;28;20216;-79
2023/08/04 01:10:29;;;;;;;3.33;1.90;;;21.50;99.90;;;;;;5081937;28;20225;-78
2023/08/04 01:12:59;;;;;;;3.13;2.83;;;21.50;99.90;;;;;;5086633;28;20236;-77
2023/08/04 01:15:26;;;;;;;2.15;2.05;;;21.50;99.90;;;;;;5086153;28;20714;-78
2023/08/04 01:17:54;;;;;;;2.60;2.40;;;21.40;99.90;;;;;;5082528;28;20218;-79
2023/08/04 01:20:22;;;;;;;2.47;2.30;;;21.30;99.90;;;;;;5082918;28;20696;-78
2023/08/04 01:22:50;;;;;;;3.80;2.22;;;21.30;99.90;;;;;;5080622;28;20194;-79
2023/08/04 01:25:20;;;;;;;2.60;2.40;;;21.30;99.90;;;;;;5083547;28;20229;-78
2023/08/04 01:30:41;;;;;;;2.95;2.45;;;21.10;99.90;;;;;;5084062;28;20660;-78
2023/08/04 01:33:17;;;;;;;2.50;2.30;;;21.20;99.90;;;;;;5082244;28;20292;-78
2023/08/04 01:35:44;;;;;;;2.42;2.22;;;21.20;99.90;;;;;;5085192;28;20614;-78
2023/08/04 01:38:13;;;;;;;2.65;2.22;;;21.30;99.90;;;;;;5087161;28;20700;-78
2023/08/04 01:40:40;;;;;;;2.75;2.55;;;21.40;99.90;;;;;;5081276;28;20657;-79
2023/08/04 01:43:07;;;;;;;2.50;2.30;;;21.40;99.90;;;;;;5083497;28;20258;-78
2023/08/04 01:45:34;;;;;;;2.60;2.40;;;21.30;99.90;;;;;;5087892;28;21102;-78
2023/08/04 01:48:01;;;;;;;2.42;2.22;;;21.20;99.90;;;;;;5081379;28;20747;-79
2023/08/04 01:50:27;;;;;;;2.60;2.40;;;21.20;99.90;;;;;;5085002;28;20190;-79
2023/08/04 01:52:55;;;;;;;2.60;2.40;;;21.10;99.90;;;;;;5080986;28;20225;-78
2023/08/04 01:55:23;;;;;;;2.55;2.35;;;21.10;99.90;;;;;;5080642;28;21810;-79
2023/08/04 01:57:50;;;;;;;2.50;2.30;;;21.10;99.90;;;;;;5081437;28;20301;-78
2023/08/04 02:00:18;;;;;;;2.50;2.30;;;21.10;99.90;;;;;;5081207;28;20275;-78
2023/08/04 02:02:45;;;;;;;2.90;2.70;;;21.00;99.90;;;;;;5087794;28;20287;-78
2023/08/04 02:05:13;;;;;;;2.47;2.35;;;20.90;99.90;;;;;;5085907;28;20230;-79
2023/08/04 02:07:40;;;;;;;3.95;2.30;;;20.90;99.90;;;;;;5085346;28;20217;-78
2023/08/04 02:10:08;;;;;;;2.92;2.55;;;21.00;99.90;;;;;;5086860;28;20234;-79
2023/08/04 02:12:37;;;;;;;3.20;2.60;;;21.00;99.90;;;;;;5082984;28;20672;-78
2023/08/04 02:15:05;;;;;;;2.00;1.90;;;21.00;99.90;;;;;;5089829;28;20198;-78
2023/08/04 02:17:33;;;;;;;2.35;2.15;;;21.00;99.90;;;;;;5081322;28;20253;-79
2023/08/04 02:20:00;;;;;;;2.00;1.90;;;21.00;99.90;;;;;;5092612;28;20213;-78
2023/08/04 02:22:27;;;;;;;2.40;2.20;;;21.00;99.90;;;;;;5090766;28;20617;-78
2023/08/04 02:24:54;;;;;;;2.58;2.30;;;21.00;99.90;;;;;;5088948;28;20287;-78
2023/08/04 02:27:21;;;;;;;2.55;2.10;;;21.00;99.90;;;;;;5083028;28;20249;-78
2023/08/04 02:29:49;;;;;;;2.60;2.40;;;21.00;99.90;;;;;;5093430;28;20258;-77
2023/08/04 02:32:16;;;;;;;2.42;2.25;;;20.90;99.90;;;;;;5087590;28;20311;-80
2023/08/04 02:34:43;;;;;;;2.58;2.38;;;20.90;99.90;;;;;;5091752;28;20322;-78
2023/08/04 02:37:10;;;;;;;2.38;2.17;;;20.90;99.90;;;;;;5087601;28;20252;-78
2023/08/04 02:39:37;;;;;;;2.50;2.30;;;20.80;99.90;;;;;;5088965;28;20266;-79
2023/08/04 02:42:04;;;;;;;2.10;2.00;;;20.70;99.90;;;;;;5091453;28;20250;-78
2023/08/04 02:44:31;;;;;;;2.75;2.55;;;20.80;99.90;;;;;;5082838;28;20240;-78
2023/08/04 02:46:59;;;;;;;3.03;2.45;;;20.70;99.90;;;;;;5084091;28;20635;-79
2023/08/04 02:49:26;;;;;;;2.50;2.30;;;20.80;99.90;;;;;;5085944;28;20225;-79
2023/08/04 02:51:53;;;;;;;2.25;2.05;;;20.80;99.90;;;;;;5086781;28;20236;-79
2023/08/04 02:54:20;;;;;;;2.38;2.17;;;20.90;99.90;;;;;;5090489;28;20769;-79
2023/08/04 02:56:47;;;;;;;2.60;2.40;;;21.00;99.90;;;;;;5084763;28;20647;-80
2023/08/04 02:59:14;;;;;;;2.38;2.17;;;20.90;99.90;;;;;;5083295;28;20194;-80
2023/08/04 03:01:41;;;;;;;2.45;2.33;;;21.00;99.90;;;;;;5089230;28;20228;-79
2023/08/04 03:04:12;;;;;;;2.50;2.30;;;20.90;99.90;;;;;;5086133;28;20210;-79
2023/08/04 03:06:39;;;;;;;2.55;2.35;;;20.80;99.90;;;;;;5085995;28;20642;-79
2023/08/04 03:09:06;;;;;;;2.45;2.25;;;20.80;99.90;;;;;;5091198;28;20691;-79
2023/08/04 03:11:33;;;;;;;2.58;2.38;;;20.80;99.90;;;;;;5091139;28;20251;-79
2023/08/04 03:14:00;;;;;;;2.50;2.30;;;20.70;99.90;;;;;;5084975;28;20202;-79
2023/08/04 03:16:27;;;;;;;2.38;2.28;;;20.60;99.90;;;;;;5085017;28;20648;-79
2023/08/04 03:18:54;;;;;;;2.35;2.10;;;20.50;99.90;;;;;;5084758;28;20229;-79
2023/08/04 03:21:22;;;;;;;2.45;2.35;;;20.60;99.90;;;;;;5090524;28;20218;-79
2023/08/04 03:23:49;;;;;;;2.67;2.47;;;20.50;99.90;;;;;;5083685;28;20625;-80
2023/08/04 03:26:16;;;;;;;2.40;2.20;;;20.50;99.90;;;;;;5082760;28;20206;-79
2023/08/04 03:28:43;;;;;;;2.58;2.38;;;20.40;99.90;;;;;;5086829;28;20294;-78
2023/08/04 03:31:10;;;;;;;3.53;2.33;;;20.40;99.90;;;;;;5087687;28;20229;-79
2023/08/04 03:33:37;;;;;;;2.53;2.30;;;20.40;99.90;;;;;;5087838;28;20626;-80
2023/08/04 03:36:04;;;;;;;2.47;2.20;;;20.40;99.90;;;;;;5084885;22;20284;-71
2023/08/04 03:38:33;;;;;;;2.17;2.05;;;20.30;99.90;;;;;;5061517;28;20281;-71
2023/08/04 03:41:00;;;;;;;2.10;2.00;;;20.30;99.90;;;;;;5062276;28;20312;-71
2023/08/04 03:43:27;;;;;;;2.15;1.95;;;20.20;99.90;;;;;;5058359;28;20207;-71
2023/08/04 03:45:54;;;;;;;2.45;1.98;;;20.20;99.90;;;;;;5058839;28;20936;-71
2023/08/04 03:48:21;;;;;;;1.98;1.88;;;20.20;99.90;;;;;;5056210;28;20202;-71
2023/08/04 03:50:48;;;;;;;2.00;1.90;;;20.20;99.90;;;;;;5055677;28;20732;-71
2023/08/04 03:53:14;;;;;;;1.88;1.77;;;20.20;99.90;;;;;;5059568;28;20235;-71
2023/08/04 03:55:43;;;;;;;1.85;1.75;;;20.20;99.90;;;;;;5057234;28;20220;-71
2023/08/04 03:58:10;;;;;;;2.10;1.90;;;20.20;99.90;;;;;;5061458;28;20694;-71
2023/08/04 04:00:37;;;;;;;1.85;1.75;;;20.10;99.90;;;;;;5056427;28;20365;-71
2023/08/04 04:03:05;;;;;;;1.77;1.67;;;20.10;99.90;;;;;;5063932;28;20250;-70
2023/08/04 04:05:32;;;;;;;2.05;1.90;;;20.10;99.90;;;;;;5067647;28;20205;-70
2023/08/04 04:07:59;;;;;;;2.00;1.90;;;20.10;99.90;;;;;;5062112;28;20206;-70
2023/08/04 04:10:26;;;;;;;1.90;1.70;;;20.10;99.90;;;;;;5059988;28;20252;-71
2023/08/04 04:12:54;;;;;;;2.10;2.00;;;20.20;99.90;;;;;;5059126;28;20254;-71
2023/08/04 04:15:21;;;;;;;2.15;1.95;;;20.20;99.90;;;;;;5058126;28;20289;-71
2023/08/04 04:17:49;;;;;;;2.65;1.90;;;20.20;99.90;;;;;;5055989;28;20276;-70
2023/08/04 04:20:16;;;;;;;2.13;2.03;;;20.20;99.90;;;;;;5059062;28;20260;-70
2023/08/04 04:22:43;;;;;;;2.28;2.08;;;20.20;99.90;;;;;;5062261;28;20823;-71
2023/08/04 04:25:10;;;;;;;2.00;1.90;;;20.20;99.90;;;;;;5057061;28;20194;-71
2023/08/04 04:27:37;;;;;;;2.13;1.92;;;20.20;99.90;;;;;;5056464;28;21321;-71
2023/08/04 04:30:06;;;;;;;2.15;2.03;;;20.20;99.90;;;;;;5055938;28;20286;-70
2023/08/04 04:32:33;;;;;;;1.90;1.73;;;20.30;99.90;;;;;;5060298;28;20910;-71
2023/08/04 04:35:00;;;;;;;1.92;1.83;;;20.40;99.90;;;;;;5058596;28;20202;-71
2023/08/04 04:37:27;;;;;;;2.20;2.00;;;20.50;99.90;;;;;;5058174;28;20745;-71
2023/08/04 04:39:54;;;;;;;2.33;2.10;;;20.50;99.90;;;;;;5058666;28;20293;-70
2023/08/04 04:42:21;;;;;;;2.42;1.90;;;20.60;99.90;;;;;;5058586;28;20222;-71
2023/08/04 04:44:48;;;;;;;1.90;1.80;;;20.70;99.90;;;;;;5063601;28;20206;-70
2023/08/04 04:47:17;;;;;;;1.92;1.83;;;20.70;99.90;;;;;;5063952;28;20673;-71
2023/08/04 04:49:44;;;;;;;1.98;1.88;;;20.60;99.90;;;;;;5058277;28;20660;-71
2023/08/04 04:52:20;;;;;;;1.55;1.45;;;20.50;99.90;;;;;;5054316;28;20222;-70
2023/08/04 04:54:48;;;;;;;1.85;1.75;;;20.40;99.90;;;;;;5058893;28;20228;-71
2023/08/04 04:57:15;;;;;;;1.83;1.67;;;20.40;99.90;;;;;;5057039;28;20202;-70
2023/08/04 04:59:42;;;;;;;2.00;1.85;;;20.40;99.90;;;;;;5057171;28;20660;-71
2023/08/04 05:02:09;;;;;;;1.75;1.65;;;20.50;99.90;;;;;;5053127;28;20306;-70
2023/08/04 05:04:37;;;;;;;1.20;1.20;;;20.50;99.90;;;;;;5058361;28;20242;-70
2023/08/04 05:07:04;;;;;;;1.65;1.40;;;20.40;99.90;;;;;;5053828;28;20234;-71
2023/08/04 05:09:31;;;;;;;1.60;1.48;;;20.50;99.90;;;;;;5057994;28;20233;-71
2023/08/04 05:11:58;;;;;;;1.60;1.50;;;20.50;99.90;;;;;;5055590;28;20306;-71
2023/08/04 05:14:25;;;;;;;1.70;1.45;;;20.50;99.90;;;;;;5054419;28;20230;-71
2023/08/04 05:16:53;;;;;;;1.48;1.38;;;20.50;99.90;;;;;;5057753;28;20242;-71
2023/08/04 05:19:20;;;;;;;3.05;1.63;;;20.50;99.90;;;;;;5058573;28;20263;-71
2023/08/04 05:21:48;;;;;;;1.55;1.45;;;20.40;99.90;;;;;;5058987;28;20305;-71
2023/08/04 05:24:15;;;;;;;1.40;1.30;;;20.40;99.90;;;;;;5052578;28;20205;-72
2023/08/04 05:26:42;;;;;;;1.60;1.50;;;20.40;99.90;;;;;;5056422;28;21463;-70
2023/08/04 05:29:09;;;;;;;2.10;1.70;;;20.40;99.90;;;;;;5066615;28;20210;-71
2023/08/04 05:31:36;;;;;;;1.50;1.40;;;20.40;99.90;;;;;;5062798;28;20257;-71
2023/08/04 05:34:03;;;;;;;1.63;1.52;;;20.40;99.90;;;;;;5057077;28;20289;-70
2023/08/04 05:36:30;;;;;;;1.50;1.40;;;20.40;99.90;;;;;;5064464;28;20235;-71
2023/08/04 05:38:58;;;;;;;1.75;1.65;;;20.50;99.90;;;;;;5062591;28;20194;-71
2023/08/04 05:41:25;;;;;;;1.92;1.40;;;20.50;99.90;;;;;;5053935;28;20258;-71
2023/08/04 05:43:52;;;;;;;1.15;1.15;;;20.30;99.90;;;;;;5056299;28;20285;-71
2023/08/04 05:46:19;;;;;;;1.70;1.60;;;20.10;99.90;;;;;;5055906;28;20199;-71
2023/08/04 05:48:46;;;;;;;1.95;1.77;;;20.20;99.90;;;;;;5054100;28;20202;-71
2023/08/04 05:51:15;;;;;;;1.33;1.23;;;20.40;99.90;;;;;;5058240;28;20210;-71
2023/08/04 05:53:43;;;;;;;1.33;1.23;;;20.50;99.90;;;;;;5059020;28;20293;-71
2023/08/04 05:56:11;;;;;;;1.67;1.50;;;20.70;99.90;;;;;;5056649;28;20199;-71
2023/08/04 05:58:38;;;;;;;1.60;1.50;;;20.80;99.90;;;;;;5055061;28;20311;-71
2023/08/04 06:01:06;;;;;;;1.42;1.33;;;20.90;99.90;;;;;;5051272;28;20310;-70
2023/08/04 06:03:33;;;;;;;1.70;1.50;;;20.90;99.90;;;;;;5053989;28;20206;-71
2023/08/04 06:06:00;;;;;;;2.13;1.38;;;20.80;99.90;;;;;;5056084;28;20290;-70
2023/08/04 06:08:27;;;;;;;1.38;1.27;;;20.80;99.90;;;;;;5058207;28;20256;-70
2023/08/04 06:10:54;;;;;;;1.25;1.23;;;20.80;99.90;;;;;;5057002;28;20281;-71
2023/08/04 06:13:23;;;;;;;1.48;1.38;;;20.90;99.90;;;;;;5053762;28;20199;-71
2023/08/04 06:15:50;;;;;;;1.42;1.20;;;21.00;99.90;;;;;;5057337;28;20866;-71
2023/08/04 06:18:17;;;;;;;1.40;1.20;;;21.10;99.90;;;;;;5061555;28;20260;-70
2023/08/04 06:20:44;;;;;;;1.40;1.30;;;21.30;99.90;;;;;;5057141;28;20225;-71
2023/08/04 06:23:12;;;;;;;1.50;1.40;;;21.50;99.90;;;;;;5055776;28;20214;-71
2023/08/04 06:25:39;;;;;;;1.40;1.30;;;21.60;99.90;;;;;;5054708;28;20209;-71
2023/08/04 06:28:06;;;;;;;3.13;1.40;;;21.70;99.90;;;;;;5057953;28;20298;-71
2023/08/04 06:30:34;;;;;;;1.95;1.38;;;21.70;99.90;;;;;;5055067;28;20202;-70
2023/08/04 06:33:01;;;;;;;2.22;1.70;;;21.60;99.90;;;;;;5055199;28;20218;-70
2023/08/04 06:35:28;;;;;;;1.98;1.52;;;21.50;99.90;;;;;;5058548;28;20214;-70
2023/08/04 06:37:55;;;;;;;1.52;1.42;;;21.50;99.90;;;;;;5056492;28;20209;-71
2023/08/04 06:40:22;;;;;;;1.52;1.42;;;21.70;99.90;;;;;;5058057;28;20746;-70
2023/08/04 06:42:49;;;;;;;1.33;1.23;;;21.70;99.90;;;;;;5058288;28;20307;-71
2023/08/04 06:45:16;;;;;;;1.38;1.27;;;21.70;99.90;;;;;;5056254;28;20283;-70
2023/08/04 06:47:45;;;;;;;1.60;1.30;;;21.60;99.90;;;;;;5051684;28;20202;-69
2023/08/04 06:50:12;;;;;;;1.42;1.33;;;21.80;99.90;;;;;;5057449;28;20793;-70
2023/08/04 06:52:38;;;;;;;1.63;1.48;;;22.20;99.90;;;;;;5056071;28;20225;-70
2023/08/04 06:55:06;;;;;;;3.60;1.30;;;22.30;99.90;;;;;;5058821;28;20229;-69
2023/08/04 06:57:33;;;;;;;1.50;1.40;;;22.30;99.90;;;;;;5058960;28;20958;-70
2023/08/04 07:00:00;;;;;;;1.42;1.27;;;22.30;99.90;;;;;;5056995;28;20231;-70
2023/08/04 07:02:27;;;;;;;1.83;1.63;;;22.50;99.90;;;;;;5059994;28;20751;-70
2023/08/04 07:04:56;;;;;;;1.75;1.40;;;22.50;99.90;;;;;;5061673;28;20223;-69
2023/08/04 07:07:24;;;;;;;1.73;1.60;;;22.20;99.90;;;;;;5059965;28;20195;-71
2023/08/04 07:09:51;;;;;;;2.08;1.45;;;21.90;99.90;;;;;;5060181;28;20206;-72
2023/08/04 07:12:18;;;;;;;2.33;1.60;;;21.60;99.90;;;;;;5058884;28;20795;-72
2023/08/04 07:14:45;;;;;;;2.05;1.27;;;21.60;99.90;;;;;;5060585;28;20213;-73
2023/08/04 07:17:12;;;;;;;1.75;1.50;;;21.70;99.90;;;;;;5058743;28;20202;-73
2023/08/04 07:19:39;;;;;;;1.50;1.40;;;21.90;99.90;;;;;;5060881;28;20226;-73
2023/08/04 07:22:08;;;;;;;1.67;1.42;;;22.00;99.90;;;;;;5061833;28;20218;-75
2023/08/04 07:24:35;;;;;;;1.60;1.50;;;22.00;99.90;;;;;;5056215;28;20238;-74
2023/08/04 07:27:02;;;;;;;2.35;1.40;;;21.90;99.90;;;;;;5056370;28;20285;-74
2023/08/04 07:29:33;;;;;;;3.55;1.48;;;21.70;99.90;;;;;;5058073;28;20290;-75
2023/08/04 07:32:00;;;;;;;1.60;1.50;;;21.80;99.90;;;;;;5058812;28;20264;-75
2023/08/04 07:34:27;;;;;;;1.35;1.25;;;21.80;99.90;;;;;;5055390;28;20198;-74
2023/08/04 07:36:54;;;;;;;1.55;1.45;;;21.90;99.90;;;;;;5060252;28;20210;-74
2023/08/04 07:39:22;;;;;;;1.30;1.30;;;22.00;99.90;;;;;;5057802;28;20293;-74
2023/08/04 07:41:49;;;;;;;1.98;1.60;;;22.10;99.90;;;;;;5062647;28;20649;-73
2023/08/04 07:44:16;;;;;;;1.77;1.58;;;22.10;99.90;;;;;;5054972;28;20199;-74
2023/08/04 07:46:43;;;;;;;2.75;1.40;;;22.20;99.90;;;;;;5055215;28;20305;-74
2023/08/04 07:49:10;;;;;;;1.55;1.45;;;22.20;99.90;;;;;;5058603;28;20252;-73
2023/08/04 07:51:37;;;;;;;3.03;1.65;;;22.20;99.90;;;;;;5053153;28;20257;-73
2023/08/04 07:54:04;;;;;;;1.42;1.20;;;22.10;99.90;;;;;;5055169;28;20688;-74
2023/08/04 07:56:36;;;;;;;3.35;1.50;;;22.10;99.90;;;;;;5053652;28;20694;-73
2023/08/04 07:59:03;;;;;;;2.05;1.50;;;22.10;99.90;;;;;;5060055;28;20195;-74
2023/08/04 08:01:30;;;;;;;1.98;1.70;;;22.20;99.90;;;;;;5053656;28;20727;-78
2023/08/04 08:03:57;;;;;;;2.17;1.45;;;22.30;99.90;;;;;;5055734;28;20293;-78
2023/08/04 08:06:24;;;;;;;1.73;1.48;;;22.40;99.90;;;;;;5061273;28;20754;-79
2023/08/04 08:08:51;;;;;;;1.50;1.40;;;22.40;99.90;;;;;;5055996;28;20202;-79
2023/08/04 08:11:18;;;;;;;1.45;1.35;;;22.40;99.90;;;;;;5059181;28;20249;-79
2023/08/04 08:13:48;;;;;;;1.42;1.25;;;22.60;99.90;;;;;;5056136;28;20285;-78
2023/08/04 08:16:17;;;;;;;1.65;1.50;;;22.70;99.90;;;;;;5056375;28;20210;-79
2023/08/04 08:18:44;;;;;;;2.45;1.48;;;22.90;99.90;;;;;;5057528;28;20803;-79
2023/08/04 08:21:12;;;;;;;2.55;1.40;;;22.90;99.90;;;;;;5056949;28;20612;-79
2023/08/04 08:23:39;;;;;;;1.95;1.63;;;22.90;99.90;;;;;;5054888;28;20203;-79
2023/08/04 08:26:06;;;;;;;2.22;1.60;;;22.90;99.90;;;;;;5057565;28;20853;-74
2023/08/04 08:28:33;;;;;;;1.67;1.55;;;22.90;99.90;;;;;;5040740;28;20206;-75
2023/08/04 08:31:02;;;;;;;2.22;1.52;;;23.00;99.90;;;;;;5055473;28;20868;-75
2023/08/04 08:33:29;;;;;;;1.80;1.60;;;23.30;99.90;;;;;;5056280;28;20233;-75
2023/08/04 08:35:56;;;;;;;1.50;1.40;;;23.70;99.90;;;;;;5056263;28;20288;-74
2023/08/04 08:38:23;;;;;;;2.65;1.67;;;24.10;99.90;;;;;;5055587;28;20206;-73
2023/08/04 08:40:51;;;;;;;4.38;1.48;;;24.20;99.90;;;;;;5058240;28;20803;-74
2023/08/04 08:43:18;;;;;;;2.00;1.65;;;23.90;99.90;;;;;;5057262;28;20864;-74
2023/08/04 08:45:45;;;;;;;1.40;1.27;;;23.50;99.90;;;;;;5059478;28;20210;-74
2023/08/04 08:48:14;;;;;;;1.50;1.35;;;23.40;99.90;;;;;;5059862;28;20264;-74
2023/08/04 08:50:43;;;;;;;1.30;1.20;;;23.40;99.90;;;;;;5077084;28;20183;-73
2023/08/04 08:53:12;;;;;;;1.38;1.25;;;23.50;99.90;;;;;;5058900;28;20646;-73
2023/08/04 08:55:40;;;;;;;1.00;1.00;;;23.60;99.90;;;;;;5056580;28;20289;-73
2023/08/04 08:58:08;;;;;;;1.30;1.20;;;23.70;99.90;;;;;;5061894;28;20207;-73
2023/08/04 09:00:35;;;;;;;1.65;1.40;;;23.80;99.90;;;;;;5060518;28;20221;-73
2023/08/04 09:03:05;;;;;;;1.83;1.52;;;24.10;99.90;;;;;;5056670;28;20420;-73
2023/08/04 09:05:34;;;;;;;1.55;1.20;;;24.20;99.90;;;;;;5058716;28;20582;-73
2023/08/04 09:08:02;;;;;;;1.30;1.20;;;24.40;99.90;;;;;;5058121;28;20209;-74
2023/08/04 09:10:29;;;;;;;1.42;1.30;;;24.20;99.90;;;;;;5058647;28;20698;-73
2023/08/04 09:12:57;;;;;;;1.33;1.23;;;24.00;99.90;;;;;;5052887;28;20253;-73
2023/08/04 09:15:33;;;;;;;1.65;1.30;;;23.80;99.90;;;;;;5058233;28;20202;-74
2023/08/04 09:18:00;;;;;;;1.23;1.13;;;23.80;99.90;;;;;;5057561;28;20203;-74
2023/08/04 09:20:29;;;;;;;1.23;1.13;;;23.70;99.90;;;;;;5059429;28;20190;-73
2023/08/04 09:22:57;;;;;;;1.65;1.25;;;23.60;99.90;;;;;;5057491;28;20332;-74
2023/08/04 09:25:24;;;;;;;1.02;1.02;;;23.50;99.90;;;;;;5056518;28;20233;-74
2023/08/04 09:27:52;;;;;;;1.63;1.10;;;23.50;99.90;;;;;;5060521;28;20222;-74
2023/08/04 09:30:19;;;;;;;1.00;1.00;;;23.40;99.90;;;;;;5060817;28;20260;-74
2023/08/04 09:32:49;;;;;;;2.33;1.08;;;23.20;99.90;;;;;;5059555;28;20238;-73
2023/08/04 09:35:17;;;;;;;1.20;1.10;;;23.00;99.90;;;;;;5056992;28;20722;-73
2023/08/04 09:37:44;;;;;;;0.93;0.93;;;23.00;99.90;;;;;;5055513;28;20294;-74
2023/08/04 09:40:17;;;;;;;1.05;1.02;;;23.00;99.90;;;;;;5056353;28;20209;-74
2023/08/04 09:42:44;;;;;;;1.33;1.05;;;23.10;99.90;;;;;;5057454;28;20275;-75
2023/08/04 09:45:15;;;;;;;1.13;1.00;;;23.30;99.90;;;;;;5056569;28;20245;-74
2023/08/04 09:47:47;;;;;;;1.00;1.00;;;23.40;99.90;;;;;;5055263;28;20256;-74
2023/08/04 09:50:15;;;;;;;1.00;0.90;;;23.40;99.90;;;;;;5060257;28;20883;-74
2023/08/04 09:52:42;;;;;;;1.05;1.05;;;23.50;99.90;;;;;;5058736;28;20282;-74
2023/08/04 09:55:10;;;;;;;0.98;0.90;;;23.60;99.90;;;;;;5057376;28;20228;-74
2023/08/04 09:57:39;;;;;;;0.70;0.70;;;23.70;99.90;;;;;;5059891;28;20293;-75
2023/08/04 10:00:09;;;;;;;1.13;1.02;;;23.80;99.90;;;;;;5058431;28;20202;-74
2023/08/04 10:02:36;;;;;;;1.13;1.02;;;23.90;99.90;;;;;;5052598;28;20223;-74
2023/08/04 10:05:04;;;;;;;1.10;1.00;;;23.90;99.90;;;;;;5056000;28;20298;-74
2023/08/04 10:07:31;;;;;;;1.20;1.00;;;23.80;99.90;;;;;;5057545;28;20251;-73
2023/08/04 10:10:00;;;;;;;1.17;1.08;;;23.80;99.90;;;;;;5057659;28;20285;-74
2023/08/04 10:12:28;;;;;;;0.90;0.90;;;23.70;99.90;;;;;;5056496;28;20210;-73
2023/08/04 10:14:57;;;;;;;1.75;1.23;;;23.70;99.90;;;;;;5056635;28;20195;-73
2023/08/04 10:17:26;;;;;;;1.00;1.00;;;23.70;99.90;;;;;;5052239;28;20303;-74
2023/08/04 10:20:03;;;;;;;1.20;1.10;;;23.70;99.90;;;;;;5056769;28;20995;-74
2023/08/04 10:22:30;;;;;;;1.00;0.95;;;23.70;99.90;;;;;;5057811;28;20225;-74
2023/08/04 10:24:57;;;;;;;1.35;1.25;;;23.70;99.90;;;;;;5057124;28;20807;-74
2023/08/04 10:27:24;;;;;;;1.23;1.13;;;23.80;99.90;;;;;;5054353;28;20198;-73
2023/08/04 10:30:09;;;;;;;1.90;1.33;;;24.10;99.90;;;;;;5062708;28;20554;-73
2023/08/04 10:32:37;;;;;;;1.40;1.25;;;24.60;99.90;;;;;;5056708;28;20214;-73
2023/08/04 10:35:06;;;;;;;2.03;1.40;;;24.80;99.90;;;;;;5061194;28;20206;-73
2023/08/04 10:37:48;;;;;;;0.82;0.82;;;25.00;99.90;;;;;;5061022;28;20205;-74
2023/08/04 10:40:26;;;;;;;1.20;1.10;;;25.30;99.90;;;;;;5062953;28;21073;-73
2023/08/04 10:43:02;;;;;;;2.70;1.67;;;25.70;99.90;;;;;;5058462;28;20312;-74
2023/08/04 10:45:53;;;;;;;2.90;1.58;;;26.00;99.90;;;;;;5060030;28;20211;-73
2023/08/04 10:48:21;;;;;;;1.92;1.48;;;26.10;99.90;;;;;;5062219;28;20199;-74
2023/08/04 10:50:49;;;;;;;1.30;1.10;;;26.20;99.90;;;;;;5062443;28;20221;-76
2023/08/04 10:53:16;;;;;;;6.07;1.23;;;26.20;99.90;;;;;;5061799;28;20615;-76
2023/08/04 10:55:55;;;;;;;1.23;1.10;;;25.70;99.90;;;;;;5059141;28;20846;-76
2023/08/04 10:58:22;;;;;;;1.13;1.02;;;25.40;99.90;;;;;;5060929;28;20636;-76
2023/08/04 11:00:49;;;;;;;1.52;1.23;;;25.20;99.90;;;;;;5060561;28;20298;-76
2023/08/04 11:03:22;;;;;;;1.10;1.00;;;25.20;99.90;;;;;;5058678;28;20247;-76
2023/08/04 11:05:50;;;;;;;1.40;1.17;;;25.20;99.90;;;;;;5059496;28;20336;-74
2023/08/04 11:08:19;;;;;;;1.33;1.23;;;25.20;99.90;;;;;;5059552;28;20882;-76
2023/08/04 11:10:51;;;;;;;1.20;1.10;;;25.00;99.90;;;;;;5062547;28;20206;-76
2023/08/04 11:13:20;;;;;;;1.38;1.20;;;25.20;99.90;;;;;;5059572;28;20960;-76
2023/08/04 11:15:48;;;;;;;1.85;0.88;;;25.50;99.90;;;;;;5057842;28;20226;-74
2023/08/04 11:18:17;;;;;;;0.88;0.88;;;25.80;99.90;;;;;;5055651;28;20290;-77
2023/08/04 11:20:46;;;;;;;0.80;0.80;;;26.00;99.90;;;;;;5058298;28;20214;-77
2023/08/04 11:23:13;;;;;;;1.05;0.88;;;26.20;99.90;;;;;;5058839;28;20230;-77
2023/08/04 11:25:41;;;;;;;1.10;0.98;;;26.20;99.90;;;;;;5060225;28;20264;-74
2023/08/04 11:28:08;;;;;;;1.30;1.15;;;26.30;99.90;;;;;;5057370;28;20737;-74
2023/08/04 11:30:37;;;;;;;1.88;1.10;;;26.20;99.90;;;;;;5068228;28;20230;-75
2023/08/04 11:33:07;;;;;;;1.05;0.80;;;26.10;99.90;;;;;;5061539;28;20272;-77
2023/08/04 11:35:34;;;;;;;2.25;1.30;;;26.10;99.90;;;;;;5058994;28;20737;-77
2023/08/04 11:38:04;;;;;;;0.90;0.90;;;26.10;99.90;;;;;;5057049;28;20267;-77
2023/08/04 11:40:32;;;;;;;1.92;1.05;;;26.20;99.90;;;;;;5058348;28;20237;-77
2023/08/04 11:43:00;;;;;;;1.45;0.80;;;26.20;99.90;;;;;;5061632;28;20308;-77
2023/08/04 11:45:32;;;;;;;0.80;0.80;;;26.30;99.90;;;;;;5061111;28;20264;-77
2023/08/04 11:47:59;;;;;;;1.42;1.02;;;26.30;99.90;;;;;;5060157;28;20261;-76
2023/08/04 11:50:26;;;;;;;2.25;1.02;;;26.30;99.90;;;;;;5058284;28;20194;-74
2023/08/04 11:52:54;;;;;;;1.25;0.88;;;26.20;99.90;;;;;;5060209;28;20877;-73
2023/08/04 11:55:22;;;;;;;1.58;1.00;;;26.10;99.90;;;;;;5056983;28;20572;-75
2023/08/04 11:57:51;;;;;;;0.90;0.90;;;26.00;99.90;;;;;;5056137;28;20281;-70
2023/08/04 12:00:18;;;;;;;1.45;0.98;;;26.00;99.90;;;;;;5052100;28;20285;-70
2023/08/04 12:03:00;;;;;;;0.90;0.90;;;26.00;99.90;;;;;;5040472;28;20244;-72
2023/08/04 12:05:31;;;;;;;2.22;1.13;;;26.20;99.90;;;;;;5057274;28;20241;-70
2023/08/04 12:07:59;;;;;;;2.78;1.30;;;26.20;99.90;;;;;;5053319;28;20230;-71
2023/08/04 12:10:28;;;;;;;2.03;1.58;;;26.20;99.90;;;;;;5056510;28;20229;-70
2023/08/04 12:12:55;;;;;;;2.45;1.70;;;26.20;99.90;;;;;;5058868;28;20320;-70
2023/08/04 12:15:22;;;;;;;1.92;1.27;;;26.30;99.90;;;;;;5060916;28;20792;-70
2023/08/04 12:17:49;;;;;;;1.13;1.02;;;26.40;99.90;;;;;;5052264;28;20230;-70
2023/08/04 12:20:16;;;;;;;1.08;1.05;;;26.40;99.90;;;;;;5057614;28;20743;-71
2023/08/04 12:22:44;;;;;;;0.93;0.90;;;26.30;99.90;;;;;;5057815;28;20855;-70
2023/08/04 12:25:12;;;;;;;1.90;0.82;;;26.10;99.90;;;;;;5058051;28;20210;-70
2023/08/04 12:27:41;;;;;;;1.23;1.00;;;25.90;99.90;;;;;;5056004;28;20199;-71
2023/08/04 12:30:09;;;;;;;0.98;0.88;;;25.50;99.90;;;;;;5055224;28;20285;-71
2023/08/04 12:32:36;;;;;;;1.02;0.80;;;25.40;99.90;;;;;;5061318;28;20216;-71
2023/08/04 12:35:04;;;;;;;0.80;0.80;;;25.30;99.90;;;;;;5058041;28;20244;-71
2023/08/04 12:37:31;;;;;;;0.85;0.82;;;25.40;99.90;;;;;;5055452;28;20230;-70
2023/08/04 12:39:58;;;;;;;1.77;0.80;;;25.40;99.90;;;;;;5054846;28;20243;-71
2023/08/04 12:42:25;;;;;;;1.02;0.80;;;25.50;99.90;;;;;;5054673;28;20226;-70
2023/08/04 12:44:54;;;;;;;0.80;0.80;;;25.40;99.90;;;;;;5058303;28;20226;-72
2023/08/04 12:47:21;;;;;;;0.73;0.73;;;25.40;99.90;;;;;;5052298;28;20282;-70
2023/08/04 12:49:48;;;;;;;0.75;0.75;;;25.30;99.90;;;;;;5053108;28;20260;-72
2023/08/04 12:52:15;;;;;;;1.83;1.00;;;25.50;99.90;;;;;;5052250;28;20276;-70
2023/08/04 12:54:42;;;;;;;1.30;0.90;;;25.70;99.90;;;;;;5053900;28;20202;-71